sensor_id;sensor_type;location;lat;lon;timestamp;P1;durP1;ratioP1;P2;durP2;ratioP2
1719;SDS011;857;52.872;9.692;2023-03-01T00:02:21;12.00;;;8.40;;
1719;SDS011;857;52.872;9.692;2023-03-01T00:04:49;15.73;;;8.30;;
1719;SDS011;857;52.872;9.692;2023-03-01T00:07:17;12.00;;;8.00;;
1719;SDS011;857;52.872;9.692;2023-03-01T00:09:46;10.80;;;7.80;;
1719;SDS011;857;52.872;9.692;2023-03-01T00:12:14;10.80;;;7.00;;
1719;SDS011;857;52.872;9.692;2023-03-01T00:14:42;12.90;;;8.20;;
1719;SDS011;857;52.872;9.692;2023-03-01T00:17:10;10.40;;;7.90;;
1719;SDS011;857;52.872;9.692;2023-03-01T00:19:38;9.70;;;7.50;;
1719;SDS011;857;52.872;9.692;2023-03-01T00:22:05;15.73;;;8.53;;
1719;SDS011;857;52.872;9.692;2023-03-01T00:24:33;11.87;;;8.37;;
1719;SDS011;857;52.872;9.692;2023-03-01T00:27:02;13.20;;;8.33;;
1719;SDS011;857;52.872;9.692;2023-03-01T00:29:30;14.67;;;8.37;;
1719;SDS011;857;52.872;9.692;2023-03-01T00:31:57;12.73;;;7.63;;
1719;SDS011;857;52.872;9.692;2023-03-01T00:34:25;11.17;;;7.70;;
1719;SDS011;857;52.872;9.692;2023-03-01T00:36:54;13.60;;;7.47;;
1719;SDS011;857;52.872;9.692;2023-03-01T00:39:30;12.57;;;7.93;;
1719;SDS011;857;52.872;9.692;2023-03-01T00:41:58;10.70;;;7.23;;
1719;SDS011;857;52.872;9.692;2023-03-01T00:44:27;9.43;;;7.50;;
1719;SDS011;857;52.872;9.692;2023-03-01T00:46:55;10.80;;;6.37;;
1719;SDS011;857;52.872;9.692;2023-03-01T00:49:23;8.00;;;5.83;;
1719;SDS011;857;52.872;9.692;2023-03-01T00:51:53;9.30;;;5.77;;
1719;SDS011;857;52.872;9.692;2023-03-01T00:54:23;8.47;;;5.90;;
1719;SDS011;857;52.872;9.692;2023-03-01T00:56:50;11.87;;;6.27;;
1719;SDS011;857;52.872;9.692;2023-03-01T00:59:18;10.20;;;7.03;;
1719;SDS011;857;52.872;9.692;2023-03-01T01:01:47;11.10;;;6.17;;
1719;SDS011;857;52.872;9.692;2023-03-01T01:04:15;10.30;;;6.70;;
1719;SDS011;857;52.872;9.692;2023-03-01T01:06:43;10.87;;;7.10;;
1719;SDS011;857;52.872;9.692;2023-03-01T01:09:12;9.87;;;6.43;;
1719;SDS011;857;52.872;9.692;2023-03-01T01:11:42;11.93;;;6.43;;
1719;SDS011;857;52.872;9.692;2023-03-01T01:14:10;7.43;;;5.10;;
1719;SDS011;857;52.872;9.692;2023-03-01T01:16:38;7.77;;;5.80;;
1719;SDS011;857;52.872;9.692;2023-03-01T01:19:07;6.30;;;5.67;;
1719;SDS011;857;52.872;9.692;2023-03-01T01:21:36;9.37;;;6.63;;
1719;SDS011;857;52.872;9.692;2023-03-01T01:24:04;7.70;;;5.60;;
1719;SDS011;857;52.872;9.692;2023-03-01T01:26:32;8.90;;;5.33;;
1719;SDS011;857;52.872;9.692;2023-03-01T01:29:01;9.57;;;5.40;;
1719;SDS011;857;52.872;9.692;2023-03-01T01:31:29;7.67;;;5.30;;
1719;SDS011;857;52.872;9.692;2023-03-01T01:33:58;6.57;;;4.80;;
1719;SDS011;857;52.872;9.692;2023-03-01T01:36:27;6.50;;;5.00;;
1719;SDS011;857;52.872;9.692;2023-03-01T01:38:55;8.60;;;4.70;;
1719;SDS011;857;52.872;9.692;2023-03-01T01:41:23;8.20;;;5.23;;
1719;SDS011;857;52.872;9.692;2023-03-01T01:46:34;9.07;;;5.33;;
1719;SDS011;857;52.872;9.692;2023-03-01T01:49:05;7.40;;;5.97;;
1719;SDS011;857;52.872;9.692;2023-03-01T01:51:35;7.17;;;5.20;;
1719;SDS011;857;52.872;9.692;2023-03-01T01:54:06;6.43;;;5.03;;
1719;SDS011;857;52.872;9.692;2023-03-01T01:56:35;7.20;;;4.80;;
1719;SDS011;857;52.872;9.692;2023-03-01T01:59:04;9.60;;;5.30;;
1719;SDS011;857;52.872;9.692;2023-03-01T02:01:32;7.47;;;4.53;;
1719;SDS011;857;52.872;9.692;2023-03-01T02:04:00;7.73;;;4.30;;
1719;SDS011;857;52.872;9.692;2023-03-01T02:06:28;9.67;;;5.00;;
1719;SDS011;857;52.872;9.692;2023-03-01T02:08:59;7.40;;;4.83;;
1719;SDS011;857;52.872;9.692;2023-03-01T02:11:27;7.03;;;4.80;;
1719;SDS011;857;52.872;9.692;2023-03-01T02:13:56;7.87;;;5.00;;
1719;SDS011;857;52.872;9.692;2023-03-01T02:16:24;6.40;;;4.60;;
1719;SDS011;857;52.872;9.692;2023-03-01T02:18:54;7.77;;;4.53;;
1719;SDS011;857;52.872;9.692;2023-03-01T02:21:30;6.77;;;3.93;;
1719;SDS011;857;52.872;9.692;2023-03-01T02:24:04;6.60;;;3.90;;
1719;SDS011;857;52.872;9.692;2023-03-01T02:26:36;5.27;;;4.10;;
1719;SDS011;857;52.872;9.692;2023-03-01T02:29:09;6.77;;;4.10;;
1719;SDS011;857;52.872;9.692;2023-03-01T02:31:37;6.37;;;3.90;;
1719;SDS011;857;52.872;9.692;2023-03-01T02:34:08;5.33;;;2.97;;
1719;SDS011;857;52.872;9.692;2023-03-01T02:36:36;5.10;;;3.03;;
1719;SDS011;857;52.872;9.692;2023-03-01T02:39:05;4.43;;;2.43;;
1719;SDS011;857;52.872;9.692;2023-03-01T02:41:41;4.40;;;2.87;;
1719;SDS011;857;52.872;9.692;2023-03-01T02:44:10;5.60;;;4.00;;
1719;SDS011;857;52.872;9.692;2023-03-01T02:46:42;4.70;;;3.27;;
1719;SDS011;857;52.872;9.692;2023-03-01T02:49:18;6.10;;;3.37;;
1719;SDS011;857;52.872;9.692;2023-03-01T02:51:48;4.97;;;3.23;;
1719;SDS011;857;52.872;9.692;2023-03-01T02:54:21;5.13;;;3.53;;
1719;SDS011;857;52.872;9.692;2023-03-01T02:56:50;7.00;;;3.00;;
1719;SDS011;857;52.872;9.692;2023-03-01T02:59:22;4.80;;;2.80;;
1719;SDS011;857;52.872;9.692;2023-03-01T03:01:52;3.63;;;2.63;;
1719;SDS011;857;52.872;9.692;2023-03-01T03:04:20;5.00;;;2.77;;
1719;SDS011;857;52.872;9.692;2023-03-01T03:06:50;5.53;;;2.67;;
1719;SDS011;857;52.872;9.692;2023-03-01T03:09:18;4.83;;;3.00;;
1719;SDS011;857;52.872;9.692;2023-03-01T03:11:46;3.20;;;2.23;;
1719;SDS011;857;52.872;9.692;2023-03-01T03:14:15;4.10;;;2.50;;
1719;SDS011;857;52.872;9.692;2023-03-01T03:16:48;2.50;;;2.10;;
1719;SDS011;857;52.872;9.692;2023-03-01T03:19:16;3.93;;;2.40;;
1719;SDS011;857;52.872;9.692;2023-03-01T03:21:44;2.83;;;2.17;;
1719;SDS011;857;52.872;9.692;2023-03-01T03:24:12;5.43;;;3.23;;
1719;SDS011;857;52.872;9.692;2023-03-01T03:26:40;4.57;;;3.03;;
1719;SDS011;857;52.872;9.692;2023-03-01T03:29:07;5.37;;;3.30;;
1719;SDS011;857;52.872;9.692;2023-03-01T03:31:35;6.10;;;3.33;;
1719;SDS011;857;52.872;9.692;2023-03-01T03:34:04;5.63;;;3.50;;
1719;SDS011;857;52.872;9.692;2023-03-01T03:36:32;5.60;;;3.87;;
1719;SDS011;857;52.872;9.692;2023-03-01T03:38:59;5.23;;;3.87;;
1719;SDS011;857;52.872;9.692;2023-03-01T03:41:27;8.23;;;4.43;;
1719;SDS011;857;52.872;9.692;2023-03-01T03:43:55;7.17;;;4.27;;
1719;SDS011;857;52.872;9.692;2023-03-01T03:46:22;8.33;;;4.50;;
1719;SDS011;857;52.872;9.692;2023-03-01T03:48:50;5.10;;;3.53;;
1719;SDS011;857;52.872;9.692;2023-03-01T03:51:19;5.80;;;3.63;;
1719;SDS011;857;52.872;9.692;2023-03-01T03:53:48;6.43;;;3.47;;
1719;SDS011;857;52.872;9.692;2023-03-01T03:56:16;4.87;;;3.53;;
1719;SDS011;857;52.872;9.692;2023-03-01T03:58:43;5.17;;;3.47;;
1719;SDS011;857;52.872;9.692;2023-03-01T04:01:11;6.30;;;3.67;;
1719;SDS011;857;52.872;9.692;2023-03-01T04:03:39;6.03;;;3.90;;
1719;SDS011;857;52.872;9.692;2023-03-01T04:06:07;5.97;;;3.40;;
1719;SDS011;857;52.872;9.692;2023-03-01T04:08:36;4.00;;;3.53;;
1719;SDS011;857;52.872;9.692;2023-03-01T04:11:04;7.60;;;3.57;;
1719;SDS011;857;52.872;9.692;2023-03-01T04:13:46;6.57;;;3.03;;
1719;SDS011;857;52.872;9.692;2023-03-01T04:16:13;5.43;;;3.00;;
1719;SDS011;857;52.872;9.692;2023-03-01T04:18:41;3.60;;;2.73;;
1719;SDS011;857;52.872;9.692;2023-03-01T04:21:09;3.90;;;2.67;;
1719;SDS011;857;52.872;9.692;2023-03-01T04:23:38;4.90;;;2.73;;
1719;SDS011;857;52.872;9.692;2023-03-01T04:26:07;4.13;;;2.20;;
1719;SDS011;857;52.872;9.692;2023-03-01T04:28:35;6.00;;;3.17;;
1719;SDS011;857;52.872;9.692;2023-03-01T04:31:04;3.23;;;2.20;;
1719;SDS011;857;52.872;9.692;2023-03-01T04:33:38;3.23;;;2.57;;
1719;SDS011;857;52.872;9.692;2023-03-01T04:36:07;3.77;;;2.43;;
1719;SDS011;857;52.872;9.692;2023-03-01T04:38:35;2.30;;;1.87;;
1719;SDS011;857;52.872;9.692;2023-03-01T04:41:05;3.07;;;2.23;;
1719;SDS011;857;52.872;9.692;2023-03-01T04:43:33;3.00;;;2.40;;
1719;SDS011;857;52.872;9.692;2023-03-01T04:46:01;3.70;;;2.63;;
1719;SDS011;857;52.872;9.692;2023-03-01T04:48:29;4.60;;;2.80;;
1719;SDS011;857;52.872;9.692;2023-03-01T04:50:58;4.70;;;2.70;;
1719;SDS011;857;52.872;9.692;2023-03-01T04:53:26;4.13;;;2.17;;
1719;SDS011;857;52.872;9.692;2023-03-01T04:55:54;2.60;;;2.23;;
1719;SDS011;857;52.872;9.692;2023-03-01T04:58:23;2.40;;;1.90;;
1719;SDS011;857;52.872;9.692;2023-03-01T05:00:51;2.30;;;1.73;;
1719;SDS011;857;52.872;9.692;2023-03-01T05:03:19;3.27;;;2.50;;
1719;SDS011;857;52.872;9.692;2023-03-01T05:05:48;4.20;;;2.23;;
1719;SDS011;857;52.872;9.692;2023-03-01T05:08:17;3.37;;;2.50;;
1719;SDS011;857;52.872;9.692;2023-03-01T05:10:47;4.07;;;2.10;;
1719;SDS011;857;52.872;9.692;2023-03-01T05:13:15;2.50;;;2.07;;
1719;SDS011;857;52.872;9.692;2023-03-01T05:15:47;4.20;;;2.50;;
1719;SDS011;857;52.872;9.692;2023-03-01T05:18:15;3.80;;;2.03;;
1719;SDS011;857;52.872;9.692;2023-03-01T05:20:43;2.73;;;1.90;;
1719;SDS011;857;52.872;9.692;2023-03-01T05:25:38;2.33;;;2.00;;
1719;SDS011;857;52.872;9.692;2023-03-01T05:28:07;2.40;;;1.70;;
1719;SDS011;857;52.872;9.692;2023-03-01T05:30:37;5.47;;;3.23;;
1719;SDS011;857;52.872;9.692;2023-03-01T05:33:07;4.38;;;3.00;;
1719;SDS011;857;52.872;9.692;2023-03-01T05:35:39;4.20;;;2.43;;
1719;SDS011;857;52.872;9.692;2023-03-01T05:38:07;3.73;;;2.47;;
1719;SDS011;857;52.872;9.692;2023-03-01T05:40:39;3.47;;;2.20;;
1719;SDS011;857;52.872;9.692;2023-03-01T05:43:07;7.87;;;2.57;;
1719;SDS011;857;52.872;9.692;2023-03-01T05:45:35;4.07;;;2.90;;
1719;SDS011;857;52.872;9.692;2023-03-01T05:48:03;3.90;;;2.80;;
1719;SDS011;857;52.872;9.692;2023-03-01T05:50:33;4.77;;;2.90;;
1719;SDS011;857;52.872;9.692;2023-03-01T05:53:02;3.47;;;3.13;;
1719;SDS011;857;52.872;9.692;2023-03-01T05:55:31;6.07;;;4.03;;
1719;SDS011;857;52.872;9.692;2023-03-01T05:57:59;6.30;;;3.63;;
1719;SDS011;857;52.872;9.692;2023-03-01T06:00:27;4.90;;;2.97;;
1719;SDS011;857;52.872;9.692;2023-03-01T06:02:56;9.50;;;3.00;;
1719;SDS011;857;52.872;9.692;2023-03-01T06:05:24;4.53;;;2.47;;
1719;SDS011;857;52.872;9.692;2023-03-01T06:07:53;4.50;;;3.00;;
1719;SDS011;857;52.872;9.692;2023-03-01T06:10:21;3.93;;;2.47;;
1719;SDS011;857;52.872;9.692;2023-03-01T06:12:49;4.13;;;2.67;;
1719;SDS011;857;52.872;9.692;2023-03-01T06:15:17;4.70;;;2.73;;
1719;SDS011;857;52.872;9.692;2023-03-01T06:17:45;4.43;;;2.67;;
1719;SDS011;857;52.872;9.692;2023-03-01T06:20:14;6.20;;;2.80;;
1719;SDS011;857;52.872;9.692;2023-03-01T06:22:42;7.43;;;3.17;;
1719;SDS011;857;52.872;9.692;2023-03-01T06:25:12;5.83;;;2.97;;
1719;SDS011;857;52.872;9.692;2023-03-01T06:27:40;3.40;;;2.70;;
1719;SDS011;857;52.872;9.692;2023-03-01T06:30:08;5.20;;;2.47;;
1719;SDS011;857;52.872;9.692;2023-03-01T06:32:36;4.17;;;2.50;;
1719;SDS011;857;52.872;9.692;2023-03-01T06:35:07;4.73;;;2.43;;
1719;SDS011;857;52.872;9.692;2023-03-01T06:37:36;3.47;;;2.23;;
1719;SDS011;857;52.872;9.692;2023-03-01T06:40:04;7.77;;;3.93;;
1719;SDS011;857;52.872;9.692;2023-03-01T06:42:35;6.43;;;2.80;;
1719;SDS011;857;52.872;9.692;2023-03-01T06:45:03;2.97;;;2.20;;
1719;SDS011;857;52.872;9.692;2023-03-01T06:47:31;3.87;;;3.00;;
1719;SDS011;857;52.872;9.692;2023-03-01T06:49:59;4.57;;;2.97;;
1719;SDS011;857;52.872;9.692;2023-03-01T06:52:27;5.23;;;2.70;;
1719;SDS011;857;52.872;9.692;2023-03-01T06:54:54;3.57;;;2.50;;
1719;SDS011;857;52.872;9.692;2023-03-01T06:57:22;4.97;;;3.73;;
1719;SDS011;857;52.872;9.692;2023-03-01T06:59:51;4.10;;;2.80;;
1719;SDS011;857;52.872;9.692;2023-03-01T07:02:19;4.25;;;2.42;;
1719;SDS011;857;52.872;9.692;2023-03-01T07:04:48;3.40;;;2.40;;
1719;SDS011;857;52.872;9.692;2023-03-01T07:07:16;3.90;;;3.00;;
1719;SDS011;857;52.872;9.692;2023-03-01T07:09:44;3.13;;;2.83;;
1719;SDS011;857;52.872;9.692;2023-03-01T07:12:12;4.57;;;3.20;;
1719;SDS011;857;52.872;9.692;2023-03-01T07:14:39;5.80;;;3.40;;
1719;SDS011;857;52.872;9.692;2023-03-01T07:17:08;6.80;;;3.37;;
1719;SDS011;857;52.872;9.692;2023-03-01T07:19:36;5.10;;;3.53;;
1719;SDS011;857;52.872;9.692;2023-03-01T07:22:04;6.13;;;3.63;;
1719;SDS011;857;52.872;9.692;2023-03-01T07:24:33;5.40;;;4.33;;
1719;SDS011;857;52.872;9.692;2023-03-01T07:27:00;6.47;;;3.77;;
1719;SDS011;857;52.872;9.692;2023-03-01T07:29:28;5.20;;;4.47;;
1719;SDS011;857;52.872;9.692;2023-03-01T07:31:56;5.40;;;3.73;;
1719;SDS011;857;52.872;9.692;2023-03-01T07:34:25;5.57;;;3.43;;
1719;SDS011;857;52.872;9.692;2023-03-01T07:36:53;5.93;;;4.00;;
1719;SDS011;857;52.872;9.692;2023-03-01T07:39:21;6.07;;;4.33;;
1719;SDS011;857;52.872;9.692;2023-03-01T07:41:49;7.00;;;4.80;;
1719;SDS011;857;52.872;9.692;2023-03-01T07:44:20;6.07;;;4.50;;
1719;SDS011;857;52.872;9.692;2023-03-01T07:46:48;5.60;;;4.57;;
1719;SDS011;857;52.872;9.692;2023-03-01T07:49:17;5.90;;;4.50;;
1719;SDS011;857;52.872;9.692;2023-03-01T07:51:47;8.80;;;5.40;;
1719;SDS011;857;52.872;9.692;2023-03-01T07:54:14;6.33;;;5.27;;
1719;SDS011;857;52.872;9.692;2023-03-01T07:56:43;9.37;;;5.60;;
1719;SDS011;857;52.872;9.692;2023-03-01T07:59:11;7.97;;;5.60;;
1719;SDS011;857;52.872;9.692;2023-03-01T08:01:38;6.00;;;5.40;;
1719;SDS011;857;52.872;9.692;2023-03-01T08:04:07;8.27;;;5.77;;
1719;SDS011;857;52.872;9.692;2023-03-01T08:06:34;6.93;;;5.40;;
1719;SDS011;857;52.872;9.692;2023-03-01T08:09:04;7.73;;;5.17;;
1719;SDS011;857;52.872;9.692;2023-03-01T08:11:33;8.53;;;5.30;;
1719;SDS011;857;52.872;9.692;2023-03-01T08:14:01;9.80;;;4.97;;
1719;SDS011;857;52.872;9.692;2023-03-01T08:16:28;7.73;;;5.10;;
1719;SDS011;857;52.872;9.692;2023-03-01T08:18:56;7.10;;;5.10;;
1719;SDS011;857;52.872;9.692;2023-03-01T08:21:27;8.30;;;4.77;;
1719;SDS011;857;52.872;9.692;2023-03-01T08:23:54;7.40;;;5.27;;
1719;SDS011;857;52.872;9.692;2023-03-01T08:26:23;7.40;;;4.23;;
1719;SDS011;857;52.872;9.692;2023-03-01T08:28:51;7.70;;;4.80;;
1719;SDS011;857;52.872;9.692;2023-03-01T08:31:19;7.17;;;4.50;;
1719;SDS011;857;52.872;9.692;2023-03-01T08:33:47;8.37;;;4.93;;
1719;SDS011;857;52.872;9.692;2023-03-01T08:36:17;7.20;;;4.90;;
1719;SDS011;857;52.872;9.692;2023-03-01T08:38:46;6.30;;;4.67;;
1719;SDS011;857;52.872;9.692;2023-03-01T08:41:14;7.00;;;5.00;;
1719;SDS011;857;52.872;9.692;2023-03-01T08:43:43;9.03;;;5.23;;
1719;SDS011;857;52.872;9.692;2023-03-01T08:46:10;8.87;;;5.50;;
1719;SDS011;857;52.872;9.692;2023-03-01T08:48:39;6.83;;;5.20;;
1719;SDS011;857;52.872;9.692;2023-03-01T08:51:08;9.93;;;6.50;;
1719;SDS011;857;52.872;9.692;2023-03-01T08:53:36;7.23;;;5.80;;
1719;SDS011;857;52.872;9.692;2023-03-01T08:56:04;8.27;;;5.97;;
1719;SDS011;857;52.872;9.692;2023-03-01T08:58:32;5.53;;;3.60;;
1719;SDS011;857;52.872;9.692;2023-03-01T09:01:01;6.23;;;5.40;;
1719;SDS011;857;52.872;9.692;2023-03-01T09:03:33;4.53;;;3.23;;
1719;SDS011;857;52.872;9.692;2023-03-01T09:06:01;6.97;;;5.73;;
1719;SDS011;857;52.872;9.692;2023-03-01T09:08:29;6.00;;;3.70;;
1719;SDS011;857;52.872;9.692;2023-03-01T09:10:57;3.83;;;2.50;;
1719;SDS011;857;52.872;9.692;2023-03-01T09:13:25;2.60;;;2.40;;
1719;SDS011;857;52.872;9.692;2023-03-01T09:15:56;4.30;;;2.40;;
1719;SDS011;857;52.872;9.692;2023-03-01T09:18:25;2.27;;;2.00;;
1719;SDS011;857;52.872;9.692;2023-03-01T09:20:53;2.73;;;2.33;;
1719;SDS011;857;52.872;9.692;2023-03-01T09:23:21;4.07;;;3.17;;
1719;SDS011;857;52.872;9.692;2023-03-01T09:25:49;7.13;;;5.47;;
1719;SDS011;857;52.872;9.692;2023-03-01T09:28:16;9.03;;;6.13;;
1719;SDS011;857;52.872;9.692;2023-03-01T09:30:44;4.50;;;3.00;;
1719;SDS011;857;52.872;9.692;2023-03-01T09:33:12;1.80;;;1.70;;
1719;SDS011;857;52.872;9.692;2023-03-01T09:35:41;2.20;;;2.00;;
1719;SDS011;857;52.872;9.692;2023-03-01T09:38:12;2.30;;;2.07;;
1719;SDS011;857;52.872;9.692;2023-03-01T09:40:41;2.50;;;1.90;;
1719;SDS011;857;52.872;9.692;2023-03-01T09:43:13;2.00;;;1.80;;
1719;SDS011;857;52.872;9.692;2023-03-01T09:45:43;2.30;;;2.10;;
1719;SDS011;857;52.872;9.692;2023-03-01T09:48:16;2.50;;;2.00;;
1719;SDS011;857;52.872;9.692;2023-03-01T09:50:45;3.50;;;3.20;;
1719;SDS011;857;52.872;9.692;2023-03-01T09:53:14;2.87;;;2.40;;
1719;SDS011;857;52.872;9.692;2023-03-01T09:55:43;2.30;;;1.97;;
1719;SDS011;857;52.872;9.692;2023-03-01T09:58:28;4.20;;;3.40;;
1719;SDS011;857;52.872;9.692;2023-03-01T10:00:57;3.17;;;2.60;;
1719;SDS011;857;52.872;9.692;2023-03-01T10:03:27;2.30;;;1.80;;
1719;SDS011;857;52.872;9.692;2023-03-01T10:06:01;3.17;;;2.10;;
1719;SDS011;857;52.872;9.692;2023-03-01T10:08:33;3.40;;;2.97;;
1719;SDS011;857;52.872;9.692;2023-03-01T10:11:13;2.57;;;2.37;;
1719;SDS011;857;52.872;9.692;2023-03-01T10:13:45;2.80;;;2.27;;
1719;SDS011;857;52.872;9.692;2023-03-01T10:16:16;2.20;;;2.00;;
1719;SDS011;857;52.872;9.692;2023-03-01T10:18:47;2.63;;;2.10;;
1719;SDS011;857;52.872;9.692;2023-03-01T10:21:19;5.90;;;3.30;;
1719;SDS011;857;52.872;9.692;2023-03-01T10:23:47;3.37;;;2.30;;
1719;SDS011;857;52.872;9.692;2023-03-01T10:26:30;4.00;;;2.70;;
1719;SDS011;857;52.872;9.692;2023-03-01T10:29:02;4.07;;;2.90;;
1719;SDS011;857;52.872;9.692;2023-03-01T10:31:35;1.90;;;1.37;;
1719;SDS011;857;52.872;9.692;2023-03-01T10:34:07;3.37;;;2.50;;
1719;SDS011;857;52.872;9.692;2023-03-01T10:36:36;2.83;;;2.00;;
1719;SDS011;857;52.872;9.692;2023-03-01T10:39:11;1.87;;;1.60;;
1719;SDS011;857;52.872;9.692;2023-03-01T10:41:40;2.10;;;1.77;;
1719;SDS011;857;52.872;9.692;2023-03-01T10:44:34;1.83;;;1.73;;
1719;SDS011;857;52.872;9.692;2023-03-01T10:47:02;5.57;;;4.73;;
1719;SDS011;857;52.872;9.692;2023-03-01T10:49:30;2.10;;;1.90;;
1719;SDS011;857;52.872;9.692;2023-03-01T10:52:10;3.23;;;2.27;;
1719;SDS011;857;52.872;9.692;2023-03-01T10:54:38;3.80;;;2.80;;
1719;SDS011;857;52.872;9.692;2023-03-01T10:57:10;1.93;;;1.70;;
1719;SDS011;857;52.872;9.692;2023-03-01T11:00:00;7.90;;;4.63;;
1719;SDS011;857;52.872;9.692;2023-03-01T11:02:29;30.57;;;14.07;;
1719;SDS011;857;52.872;9.692;2023-03-01T11:04:59;5.80;;;3.90;;
1719;SDS011;857;52.872;9.692;2023-03-01T11:07:28;4.70;;;3.80;;
1719;SDS011;857;52.872;9.692;2023-03-01T11:09:56;5.30;;;3.57;;
1719;SDS011;857;52.872;9.692;2023-03-01T11:12:24;3.00;;;2.53;;
1719;SDS011;857;52.872;9.692;2023-03-01T11:14:54;4.80;;;3.50;;
1719;SDS011;857;52.872;9.692;2023-03-01T11:17:23;2.20;;;2.00;;
1719;SDS011;857;52.872;9.692;2023-03-01T11:20:00;2.67;;;1.97;;
1719;SDS011;857;52.872;9.692;2023-03-01T11:22:30;6.50;;;5.00;;
1719;SDS011;857;52.872;9.692;2023-03-01T11:24:59;2.60;;;1.90;;
1719;SDS011;857;52.872;9.692;2023-03-01T11:27:27;2.90;;;1.87;;
1719;SDS011;857;52.872;9.692;2023-03-01T11:29:55;2.90;;;1.80;;
1719;SDS011;857;52.872;9.692;2023-03-01T11:32:26;5.47;;;3.43;;
1719;SDS011;857;52.872;9.692;2023-03-01T11:34:54;6.03;;;3.70;;
1719;SDS011;857;52.872;9.692;2023-03-01T11:37:28;2.80;;;1.50;;
1719;SDS011;857;52.872;9.692;2023-03-01T11:40:01;12.27;;;5.77;;
1719;SDS011;857;52.872;9.692;2023-03-01T11:42:36;3.13;;;1.83;;
1719;SDS011;857;52.872;9.692;2023-03-01T11:45:07;3.73;;;3.00;;
1719;SDS011;857;52.872;9.692;2023-03-01T11:47:41;6.77;;;4.90;;
1719;SDS011;857;52.872;9.692;2023-03-01T11:50:14;2.80;;;2.40;;
1719;SDS011;857;52.872;9.692;2023-03-01T11:52:45;8.77;;;5.00;;
1719;SDS011;857;52.872;9.692;2023-03-01T11:55:19;7.57;;;5.53;;
1719;SDS011;857;52.872;9.692;2023-03-01T11:57:55;6.33;;;3.87;;
1719;SDS011;857;52.872;9.692;2023-03-01T12:00:31;4.13;;;3.20;;
1719;SDS011;857;52.872;9.692;2023-03-01T12:03:15;2.10;;;1.50;;
1719;SDS011;857;52.872;9.692;2023-03-01T12:08:35;1.97;;;1.83;;
1719;SDS011;857;52.872;9.692;2023-03-01T12:11:06;4.30;;;3.47;;
1719;SDS011;857;52.872;9.692;2023-03-01T12:16:32;3.50;;;2.60;;
1719;SDS011;857;52.872;9.692;2023-03-01T12:21:48;5.83;;;3.90;;
1719;SDS011;857;52.872;9.692;2023-03-01T12:24:26;1.80;;;1.70;;
1719;SDS011;857;52.872;9.692;2023-03-01T12:26:58;2.17;;;1.70;;
1719;SDS011;857;52.872;9.692;2023-03-01T12:29:28;1.70;;;1.60;;
1719;SDS011;857;52.872;9.692;2023-03-01T12:32:00;4.00;;;2.53;;
1719;SDS011;857;52.872;9.692;2023-03-01T12:34:33;4.13;;;3.60;;
1719;SDS011;857;52.872;9.692;2023-03-01T12:37:16;2.77;;;2.03;;
1719;SDS011;857;52.872;9.692;2023-03-01T12:39:49;2.00;;;1.60;;
1719;SDS011;857;52.872;9.692;2023-03-01T12:42:22;2.27;;;2.07;;
1719;SDS011;857;52.872;9.692;2023-03-01T12:45:05;6.30;;;3.87;;
1719;SDS011;857;52.872;9.692;2023-03-01T12:47:44;2.17;;;1.90;;
1719;SDS011;857;52.872;9.692;2023-03-01T12:50:17;1.87;;;1.50;;
1719;SDS011;857;52.872;9.692;2023-03-01T12:52:47;2.70;;;1.70;;
1719;SDS011;857;52.872;9.692;2023-03-01T12:55:19;6.53;;;2.77;;
1719;SDS011;857;52.872;9.692;2023-03-01T12:57:52;2.57;;;2.00;;
1719;SDS011;857;52.872;9.692;2023-03-01T13:00:26;3.40;;;2.87;;
1719;SDS011;857;52.872;9.692;2023-03-01T13:02:57;2.70;;;2.50;;
1719;SDS011;857;52.872;9.692;2023-03-01T13:05:29;8.87;;;4.93;;
1719;SDS011;857;52.872;9.692;2023-03-01T13:08:04;4.30;;;2.83;;
1719;SDS011;857;52.872;9.692;2023-03-01T13:10:38;3.50;;;2.13;;
1719;SDS011;857;52.872;9.692;2023-03-01T13:13:18;4.23;;;3.00;;
1719;SDS011;857;52.872;9.692;2023-03-01T13:15:46;2.07;;;1.80;;
1719;SDS011;857;52.872;9.692;2023-03-01T13:18:28;2.03;;;1.70;;
1719;SDS011;857;52.872;9.692;2023-03-01T13:20:56;1.93;;;1.53;;
1719;SDS011;857;52.872;9.692;2023-03-01T13:23:26;4.03;;;2.30;;
1719;SDS011;857;52.872;9.692;2023-03-01T13:26:01;2.50;;;1.97;;
1719;SDS011;857;52.872;9.692;2023-03-01T13:28:42;7.93;;;5.10;;
1719;SDS011;857;52.872;9.692;2023-03-01T13:33:56;6.10;;;4.33;;
1719;SDS011;857;52.872;9.692;2023-03-01T13:39:26;6.47;;;4.30;;
1719;SDS011;857;52.872;9.692;2023-03-01T13:41:57;2.27;;;1.70;;
1719;SDS011;857;52.872;9.692;2023-03-01T13:44:29;4.83;;;2.93;;
1719;SDS011;857;52.872;9.692;2023-03-01T13:46:58;2.87;;;2.23;;
1719;SDS011;857;52.872;9.692;2023-03-01T13:49:27;2.60;;;2.10;;
1719;SDS011;857;52.872;9.692;2023-03-01T13:51:56;2.50;;;1.93;;
1719;SDS011;857;52.872;9.692;2023-03-01T13:54:25;2.23;;;1.50;;
1719;SDS011;857;52.872;9.692;2023-03-01T13:56:53;7.73;;;3.33;;
1719;SDS011;857;52.872;9.692;2023-03-01T13:59:22;3.27;;;2.40;;
1719;SDS011;857;52.872;9.692;2023-03-01T14:01:53;4.10;;;3.17;;
1719;SDS011;857;52.872;9.692;2023-03-01T14:04:22;1.90;;;1.40;;
1719;SDS011;857;52.872;9.692;2023-03-01T14:06:51;2.60;;;1.90;;
1719;SDS011;857;52.872;9.692;2023-03-01T14:09:20;6.33;;;4.30;;
1719;SDS011;857;52.872;9.692;2023-03-01T14:11:53;6.40;;;3.40;;
1719;SDS011;857;52.872;9.692;2023-03-01T14:14:33;3.30;;;1.90;;
1719;SDS011;857;52.872;9.692;2023-03-01T14:17:09;1.93;;;1.60;;
1719;SDS011;857;52.872;9.692;2023-03-01T14:19:38;2.63;;;1.67;;
1719;SDS011;857;52.872;9.692;2023-03-01T14:22:13;2.90;;;2.47;;
1719;SDS011;857;52.872;9.692;2023-03-01T14:24:44;2.13;;;1.73;;
1719;SDS011;857;52.872;9.692;2023-03-01T14:27:14;1.47;;;1.20;;
1719;SDS011;857;52.872;9.692;2023-03-01T14:29:42;4.93;;;3.57;;
1719;SDS011;857;52.872;9.692;2023-03-01T14:32:12;3.80;;;2.27;;
1719;SDS011;857;52.872;9.692;2023-03-01T14:34:44;2.23;;;1.77;;
1719;SDS011;857;52.872;9.692;2023-03-01T14:37:17;2.07;;;1.70;;
1719;SDS011;857;52.872;9.692;2023-03-01T14:39:45;6.30;;;3.60;;
1719;SDS011;857;52.872;9.692;2023-03-01T14:42:13;1.97;;;1.63;;
1719;SDS011;857;52.872;9.692;2023-03-01T14:44:42;3.60;;;2.37;;
1719;SDS011;857;52.872;9.692;2023-03-01T14:47:12;6.33;;;2.87;;
1719;SDS011;857;52.872;9.692;2023-03-01T14:49:41;3.73;;;2.93;;
1719;SDS011;857;52.872;9.692;2023-03-01T14:52:17;3.10;;;1.90;;
1719;SDS011;857;52.872;9.692;2023-03-01T14:54:46;2.73;;;1.50;;
1719;SDS011;857;52.872;9.692;2023-03-01T14:57:15;1.70;;;1.60;;
1719;SDS011;857;52.872;9.692;2023-03-01T14:59:43;1.57;;;1.33;;
1719;SDS011;857;52.872;9.692;2023-03-01T15:02:13;2.57;;;1.80;;
1719;SDS011;857;52.872;9.692;2023-03-01T15:04:43;3.80;;;2.40;;
1719;SDS011;857;52.872;9.692;2023-03-01T15:07:12;3.43;;;2.50;;
1719;SDS011;857;52.872;9.692;2023-03-01T15:09:40;2.83;;;2.13;;
1719;SDS011;857;52.872;9.692;2023-03-01T15:12:25;3.60;;;2.30;;
1719;SDS011;857;52.872;9.692;2023-03-01T15:14:53;2.00;;;1.53;;
1719;SDS011;857;52.872;9.692;2023-03-01T15:17:26;5.27;;;3.20;;
1719;SDS011;857;52.872;9.692;2023-03-01T15:19:57;4.40;;;2.60;;
1719;SDS011;857;52.872;9.692;2023-03-01T15:22:25;2.30;;;2.10;;
1719;SDS011;857;52.872;9.692;2023-03-01T15:24:53;2.50;;;1.83;;
1719;SDS011;857;52.872;9.692;2023-03-01T15:27:22;3.37;;;2.17;;
1719;SDS011;857;52.872;9.692;2023-03-01T15:29:51;2.07;;;1.60;;
1719;SDS011;857;52.872;9.692;2023-03-01T15:32:26;2.80;;;1.80;;
1719;SDS011;857;52.872;9.692;2023-03-01T15:34:54;2.73;;;2.20;;
1719;SDS011;857;52.872;9.692;2023-03-01T15:37:38;1.90;;;1.57;;
1719;SDS011;857;52.872;9.692;2023-03-01T15:42:56;1.70;;;1.47;;
1719;SDS011;857;52.872;9.692;2023-03-01T15:45:27;2.10;;;1.40;;
1719;SDS011;857;52.872;9.692;2023-03-01T15:47:56;4.27;;;1.70;;
1719;SDS011;857;52.872;9.692;2023-03-01T15:50:27;3.90;;;2.87;;
1719;SDS011;857;52.872;9.692;2023-03-01T15:52:56;3.63;;;2.30;;
1719;SDS011;857;52.872;9.692;2023-03-01T15:55:26;2.17;;;1.40;;
1719;SDS011;857;52.872;9.692;2023-03-01T15:57:58;1.70;;;1.60;;
1719;SDS011;857;52.872;9.692;2023-03-01T16:00:27;3.03;;;2.40;;
1719;SDS011;857;52.872;9.692;2023-03-01T16:02:56;3.70;;;2.93;;
1719;SDS011;857;52.872;9.692;2023-03-01T16:05:25;5.47;;;2.97;;
1719;SDS011;857;52.872;9.692;2023-03-01T16:07:53;1.20;;;1.10;;
1719;SDS011;857;52.872;9.692;2023-03-01T16:10:21;1.10;;;0.97;;